Lantana, Texas
Current Conditions -  °F | °C
As of 3:53 PM on Sunday 21 Dec 2014 (Local Time) from KDTO Reporting Station
Overcast Overcast  
Wind Chill: 50°   Ceiling: 1700
Heat Index: 50°   Visibility: 7mi
Dew Point: 45°   Wind: 13mph
Humidity: 83%   Direction: 160°SSE
Pressure: 29.84"   Gusts: NA
Location:  33.108°N, 97.1641°W
Report Text: KDTO 212153Z 16011KT 7SM OVC017 10/07 A2984 RMK AO2 SLP102 T01000072
Loading
Personal Weather Stations






























Interactive Weather Map New forecast layout! Learn more

10-Day Weather Forecast

Advertisements
Track Severe Weather on mobile